首页
METAR-TAF:

METAR-TAF

机场 :

瑟堡, 法国

纬度: 49-39N, 经度: 001-28W, 海拔: 138米

当前天气观测

该预报发布于22分钟前的08:30 UTC
风速11节,风向
温度 15°C
湿度 100%
气压 1004 hPa
能见度10公里或以上
小雨

METAR: LFRC 220830Z AUTO 19011KT 9999 -RA FEW009/// SCT013/// BKN021/// ///TCU 15/15 Q1004 TEMPO 3000 RA BECMG 22015G25KT BKN020

时间: 10:52 (08:52 UTC)

预报

该预报发布于52分钟前的08:00 UTC
预报有效从22日的 09点(UTC)到 22日的 18点(UTC)
风速10节,风向南转西南
能見度: 5000
多云层高于2500英尺
短暂存在
从 22日的 09点(UTC)到 22日的 10点(UTC)
风速15节,风向西转西南,有时为25节阵风
能見度: 3000
多云层高于700英尺
散云层高于2000英尺, 塔状积云.
成为
从 22日的 09点(UTC)到 22日的 11点(UTC)
风速15节,风向西南,有时为25节阵风
能见度10公里或以上
多云层高于2000英尺
短暂存在
从 22日的 12点(UTC)到 22日的 18点(UTC)
能見度: 4000
多云层高于2000英尺, 塔状积云.
阵雨
成为
从 22日的 16点(UTC)到 22日的 18点(UTC)
风速10节,风向西南

TAF: LFRC 220800Z 2209/2218 21010KT 5000 RA BKN025 TEMPO 2209/2210 24015G25KT 3000 RA BKN007 SCT020TCU BECMG 2209/2211 22015G25KT 9999 NSW BKN020 TEMPO 2212/2218 4000 SHRA BKN020TCU BECMG 2216/2218 23010KT

超过4000个机场的气象观测和天气预报(METAR&TAF报告)。

可查询的气象台以黄色和红色小点在地图上表示。

将鼠标移到小点上方,可查看气象台名称。

然后点击查看天气观测和预报。

如需切换地图:点击带黑十字的绿色按钮放大地图;点击带横线的绿色按钮缩小地图;或者点击绿色箭头查看邻近地区的地图。


METAR-TAF: